Worksop, United Kingdom
Current Conditions -  °F | °C
As of 9:20 PM on Sunday 21 Dec 2014 (Local Time) from EGCN Reporting Station
Few Clouds Few Clouds  
Wind Chill: 55°   Ceiling: Unl
Heat Index: 55°   Visibility: 6mi
Dew Point: 48°   Wind: 18mph
Humidity: 77%   Direction: 220°SW
Pressure: 29.91"   Gusts: NA
Location:  53.31°N, 1.12°W
Report Text: EGCN 212120Z 22016KT 9999 FEW023 13/09 Q1013
Loading
Personal Weather Stations






























Interactive Weather Map New forecast layout! Learn more

10-Day Weather Forecast

Advertisements
Track Severe Weather on mobile